Nearby METAR Reports

 

EGEO - Oban, United Kingdom
Distance from station: SSW 18mi, 30km
Updated: 17/01/2020 15:50
NOT Current
Nearby showers, Mostly cloudy
Nearby showers, Mostly cloudy
 Wind from W
Wind: W 18 mph , 30 km/h
Temperature: 7°C
Wind Chill: 3°C
Dew Point: 3°C
Humidity: 76%
Barometer: 1006 hPa
Summary: Nearby Showers
Clouds: Mostly cloudy
Visibility: 6 miles , 10 km
Cloud details: Mostly cloudy 945 m
2020/01/17 15:50 EGEO 171550Z 28016KT 9999 VCSH BKN031 07/03 Q1006
EGPU - Tiree, United Kingdom
Distance from station: WSW 64mi, 103km
Updated: 19/01/2020 12:50
Overcast
Overcast
 Wind from SSW
Wind: SSW 21 mph , 33 km/h
Temperature: 8°C
Wind Chill: 3°C
Dew Point: 5°C
Humidity: 82%
Barometer: 1039 hPa
Clouds: Overcast
Visibility: 6 miles , 10 km
Cloud details: Overcast 549 m
2020/01/19 12:50 EGPU 191250Z AUTO 21018KT 180V240 9999 OVC018/// 08/05 Q1039
EGPF - Glasgow, United Kingdom
Distance from station: SSE 66mi, 107km
Updated: 19/01/2020 12:50
Clear
Clear
 Wind from varies
Wind: varies 3 mph , 6 km/h
Temperature: 4°C
Dew Point: 4°C
Humidity: 100%
Barometer: 1043 hPa
Clouds: Clear
Visibility: 6 miles , 10 km
2020/01/19 12:50 EGPF 191250Z AUTO VRB03KT 9999 NCD 04/04 Q1043
 
EGPE - Inverness, United Kingdom
Distance from station: NE 71mi, 114km
Updated: 19/01/2020 12:50
Few Clouds
Few Clouds
 Wind from SSW
Wind: SSW 22 mph , 35 km/h, Gust: 35 mph , 56 km/h
Temperature: 7°C
Wind Chill: 3°C
Dew Point: 1°C
Humidity: 66%
Barometer: 1036 hPa
Clouds: Few Clouds
Visibility: 6 miles , 10 km
Cloud details: Few Clouds 1097 m
2020/01/19 12:50 EGPE 191250Z 20019G30KT 9999 FEW036 07/01 Q1036
EGPI - Islay/Port Ellen, United Kingdom
Distance from station: SSW 81mi, 131km
Updated: 19/01/2020 12:50
Clear
Clear
 Wind from S
Wind: S 8 mph , 13 km/h
Temperature: 6°C
Wind Chill: 3°C
Dew Point: 2°C
Humidity: 76%
Barometer: 1042 hPa
Clouds: Clear
Visibility: 6 miles , 10 km
2020/01/19 12:50 EGPI 191250Z AUTO 17007KT 140V220 9999 NCD 06/02 Q1042
EGPN - Dundee/Riverside, United Kingdom
Distance from station: E 86mi, 138km
Updated: 19/01/2020 12:50
Clear
Clear
 Wind from WSW
Wind: WSW 9 mph , 15 km/h
Temperature: 5°C
Wind Chill: 2°C
Dew Point: 4°C
Humidity: 93%
Barometer: 1041 hPa
Summary: Clear
Visibility: greater than 7 miles , 10 km
2020/01/19 12:50 EGPN 191250Z 25008KT CAVOK 05/04 Q1041
 
EGPK - Prestwick, United Kingdom
Distance from station: SSE 88mi, 141km
Updated: 19/01/2020 12:50
Few Clouds
Few Clouds
 Wind from S
Wind: S 8 mph , 13 km/h
Temperature: 6°C
Wind Chill: 3°C
Dew Point: 2°C
Humidity: 76%
Barometer: 1044 hPa
Clouds: Few Clouds
Visibility: 6 miles , 10 km
Cloud details: Few Clouds 1219 m
2020/01/19 12:50 EGPK 191250Z 19007KT 9999 FEW040 06/02 Q1044
EGPH - Edinburgh, United Kingdom
Distance from station: SE 89mi, 143km
Updated: 19/01/2020 12:50
Few Clouds
Few Clouds
 Wind from WSW
Wind: WSW 14 mph , 22 km/h
Temperature: 6°C
Wind Chill: 2°C
Dew Point: 4°C
Humidity: 87%
Barometer: 1042 hPa
Clouds: Few Clouds
Visibility: 6 miles , 10 km
Cloud details: Few Clouds 732 m
2020/01/19 12:50 EGPH 191250Z 24012KT 9999 FEW024 06/04 Q1042
EGQK - RAF Kinloss, United Kingdom
Distance from station: NE 90mi, 144km
Updated: 19/01/2020 12:50
Overcast
Overcast
 Wind from SW
Wind: SW 16 mph , 26 km/h
Temperature: 8°C
Wind Chill: 4°C
Dew Point: -1°C
Humidity: 53%
Barometer: 1036 hPa
Clouds: Overcast
Visibility: 6 miles , 10 km
Cloud details: Overcast 3353 m
2020/01/19 12:50 EGQK 191250Z AUTO 22014KT 9999 OVC110/// 08/M01 Q1036
 
EGEC - Campbeltown, United Kingdom
Distance from station: S 90mi, 145km
Updated: 18/01/2020 23:50
NOT Current
Partly cloudy
Partly cloudy
 Wind from W
Wind: W 15 mph , 24 km/h
Temperature: 6°C
Wind Chill: 2°C
Dew Point: 5°C
Humidity: 93%
Barometer: 1037 hPa
Clouds: Partly cloudy
Visibility: 6 miles , 10 km
Cloud details: Partly cloudy 975 m
2020/01/18 23:50 EGEC 182350Z 26013KT 9999 SCT032 06/05 Q1037
EGQA - Tain Range, United Kingdom
Distance from station: NNE 91mi, 146km
Updated: 17/01/2020 11:50
NOT Current
Partly cloudy
Partly cloudy
 Wind from S
Wind: S 20 mph , 31 km/h
Clouds: Partly cloudy
Visibility: 6 miles , 10 km
Cloud details: Partly cloudy 1067 m
2020/01/17 11:50 EGQA 171150Z 18017KT 9999 SCT035 05/// Q0999 BLU
EGQL - RAF Leuchars, United Kingdom
Distance from station: ESE 93mi, 149km
Updated: 19/01/2020 12:50
Clear
Clear
 Wind from WSW
Wind: WSW 12 mph , 19 km/h
Temperature: 4°C
Wind Chill: 0°C
Dew Point: 3°C
Humidity: 93%
Barometer: 1041 hPa
Summary: Clear
Visibility: greater than 7 miles , 10 km
2020/01/19 12:50 EGQL 191250Z 25010KT CAVOK 04/03 Q1041 RMK BLU
 
EGPL - Benbecula, United Kingdom
Distance from station: WNW 96mi, 154km
Updated: 19/01/2020 12:50
Overcast
Overcast
 Wind from SSW
Wind: SSW 29 mph , 46 km/h
Temperature: 9°C
Wind Chill: 4°C
Dew Point: 7°C
Humidity: 87%
Barometer: 1035 hPa
Clouds: Overcast
Visibility: 6 miles , 10 km
Cloud details: Few Clouds 488 m
Mostly cloudy 640 m
Overcast 823 m
2020/01/19 12:50 EGPL 191250Z AUTO 20025KT 9999 FEW016/// BKN021/// OVC027/// 09/07 Q1035
EGQS - RAF Lossiemouth, United Kingdom
Distance from station: NE 99mi, 160km
Updated: 19/01/2020 12:50
Clear
Clear
 Wind from SW
Wind: SW 21 mph , 33 km/h, Gust: 32 mph , 52 km/h
Temperature: 8°C
Wind Chill: 3°C
Dew Point: 0°C
Humidity: 57%
Barometer: 1036 hPa
Summary: Clear
Visibility: greater than 7 miles , 10 km
2020/01/19 12:50 EGQS 191250Z 23018G28KT CAVOK 08/M00 Q1036 NOSIG RMK BLU BLU
EGPO - Stornoway, United Kingdom
Distance from station: NNW 111mi, 179km
Updated: 19/01/2020 12:50
Mostly cloudy
Mostly cloudy
 Wind from SSW
Wind: SSW 31 mph , 50 km/h
Temperature: 9°C
Wind Chill: 4°C
Dew Point: 6°C
Humidity: 82%
Barometer: 1033 hPa
Clouds: Mostly cloudy
Visibility: 6 miles , 10 km
Cloud details: Partly cloudy 488 m
Mostly cloudy 701 m
2020/01/19 12:50 EGPO 191250Z 20027KT 9999 SCT016 BKN023 09/06 Q1033
 
EGPD - Aberdeen/Dyce, United Kingdom
Distance from station: ENE 118mi, 190km
Updated: 19/01/2020 12:50
Clear
Clear
 Wind from varies
Wind: varies 2 mph , 4 km/h
Temperature: 7°C
Dew Point: 0°C
Humidity: 61%
Barometer: 1038 hPa
Clouds: Clear
Visibility: 6 miles , 10 km
2020/01/19 12:50 EGPD 191250Z AUTO VRB02KT 9999 NCD 07/M00 Q1038 NOSIG
EGAE - Eglinton/Londond, United Kingdom
Distance from station: SSW 138mi, 222km
Updated: 19/01/2020 12:50
Clear
Clear
 Wind from SW
Wind: SW 12 mph , 19 km/h
Temperature: 8°C
Wind Chill: 4°C
Dew Point: 3°C
Humidity: 71%
Barometer: 1042 hPa
Summary: Clear
Visibility: greater than 7 miles , 10 km
2020/01/19 12:50 EGAE 191250Z 22010KT CAVOK 08/03 Q1042
EGPC - Wick, United Kingdom
Distance from station: NNE 144mi, 232km
Updated: 19/01/2020 12:50
Clear
Clear
 Wind from SW
Wind: SW 9 mph , 15 km/h
Temperature: 6°C
Wind Chill: 3°C
Dew Point: 3°C
Humidity: 81%
Barometer: 1034 hPa
Clouds: Clear
Visibility: 6 miles , 10 km
2020/01/19 12:50 EGPC 191250Z AUTO 22008KT 190V260 9999 NCD 06/03 Q1034

Metar display script from Saratoga-Weather.org